Time;durP1;ratioP1;P1;durP2;ratioP2;P2;SDS_P1;SDS_P2;PMS_P1;PMS_P2;Temp;Humidity;BMP_temperature;BMP_pressure;BME280_temperature;BME280_humidity;BME280_pressure;Samples;Min_cycle;Max_cycle;Signal;HPM_P1;HPM_P2
2022/01/31 00:02:32;;;;;;;;;;;;;;;-7.85;78.38;96332.19;6136751;28;19927;-60
2022/01/31 00:05:35;;;;;;;;;;;;;;;-7.57;77.98;96332.13;6144359;28;19926;-62
2022/01/31 00:08:36;;;;;;;;;;;;;;;-7.72;77.58;96333.88;6137372;28;19922;-61
2022/01/31 00:11:42;;;;;;;;;;;;;;;-7.52;77.67;96335.53;6144110;28;19930;-61
2022/01/31 00:14:49;;;;;;;;;;;;;;;-7.53;78.00;96328.69;6152955;28;19929;-59
2022/01/31 00:17:50;;;;;;;;;;;;;;;-7.34;77.55;96332.91;6154545;28;20319;-61
2022/01/31 00:20:51;;;;;;;;;;;;;;;-7.33;77.27;96337.19;6145552;28;20287;-60
2022/01/31 00:23:52;;;;;;;;;;;;;;;-7.47;77.64;96344.88;6144681;28;19934;-60
2022/01/31 00:26:56;;;;;;;;;;;;;;;-7.39;77.71;96332.06;6137236;28;19926;-60
2022/01/31 00:29:57;;;;;;;;;;;;;;;-7.52;77.57;96335.53;6142670;28;20417;-60
2022/01/31 00:32:58;;;;;;;;;;;;;;;-7.69;78.00;96338.13;6139649;28;20396;-59
2022/01/31 00:35:59;;;;;;;;;;;;;;;-7.52;78.77;96336.38;6142217;28;20016;-60
2022/01/31 00:39:00;;;;;;;;;;;;;;;-7.40;78.16;96338.03;6137207;28;19934;-61
2022/01/31 00:42:04;;;;;;;;;;;;;;;-7.42;78.76;96336.34;6132176;29;19923;-64
2022/01/31 00:45:13;;;;;;;;;;;;;;;-7.41;78.59;96331.25;6130864;29;19931;-60
2022/01/31 00:48:24;;;;;;;;;;;;;;;-7.33;78.38;96332.06;6146526;28;20319;-60
2022/01/31 00:51:27;;;;;;;;;;;;;;;-7.49;78.71;96330.41;6138294;28;19933;-60
2022/01/31 00:54:29;;;;;;;;;;;;;;;-7.77;79.28;96340.69;6135929;28;19926;-60
2022/01/31 00:57:30;;;;;;;;;;;;;;;-7.72;79.94;96344.09;6141443;28;19933;-59
2022/01/31 01:00:31;;;;;;;;;;;;;;;-7.44;79.32;96354.25;6141129;28;20066;-58
2022/01/31 01:03:34;;;;;;;;;;;;;;;-7.62;79.69;96354.28;6139880;28;19926;-60
2022/01/31 01:06:35;;;;;;;;;;;;;;;-7.77;79.93;96350.91;6145687;28;19926;-61
2022/01/31 01:09:38;;;;;;;;;;;;;;;-7.89;79.80;96361.16;6133807;28;19962;-59
2022/01/31 01:12:44;;;;;;;;;;;;;;;-7.87;80.69;96358.56;6142248;28;19927;-59
2022/01/31 01:15:45;;;;;;;;;;;;;;;-7.90;80.96;96349.22;6140621;28;19931;-61
2022/01/31 01:18:49;;;;;;;;;;;;;;;-7.89;81.03;96340.72;6146015;28;20379;-61
2022/01/31 01:21:50;;;;;;;;;;;;;;;-7.66;80.79;96348.34;6131831;28;19927;-60
2022/01/31 01:24:51;;;;;;;;;;;;;;;-7.50;81.28;96341.47;6152384;28;19934;-59
2022/01/31 01:27:53;;;;;;;;;;;;;;;-7.56;80.33;96339.78;6145766;28;19926;-60
2022/01/31 01:30:56;;;;;;;;;;;;;;;-7.64;80.01;96343.22;6133659;28;19927;-60
2022/01/31 01:33:57;;;;;;;;;;;;;;;-7.68;80.85;96345.78;6130732;28;19929;-60
2022/01/31 01:37:01;;;;;;;;;;;;;;;-7.59;80.95;96344.06;6147252;28;19934;-60
2022/01/31 01:40:05;;;;;;;;;;;;;;;-7.53;80.68;96339.78;6136596;28;19922;-59
2022/01/31 01:43:08;;;;;;;;;;;;;;;-7.55;81.08;96330.44;6135961;28;19989;-61
2022/01/31 01:46:09;;;;;;;;;;;;;;;-7.40;80.88;96332.06;6140211;28;19949;-60
2022/01/31 01:49:11;;;;;;;;;;;;;;;-7.34;81.34;96334.59;6151824;28;19933;-61
2022/01/31 01:52:12;;;;;;;;;;;;;;;-7.29;81.02;96338.84;6140492;28;19926;-59
2022/01/31 01:55:14;;;;;;;;;;;;;;;-7.16;80.75;96341.34;6136627;28;19936;-60
2022/01/31 01:58:17;;;;;;;;;;;;;;;-7.03;80.83;96353.22;6147218;28;19926;-60
2022/01/31 02:01:18;;;;;;;;;;;;;;;-6.79;80.70;96355.69;6138867;28;19966;-60
2022/01/31 02:04:19;;;;;;;;;;;;;;;-6.87;80.41;96354.88;6144711;28;20367;-60
2022/01/31 02:07:21;;;;;;;;;;;;;;;-6.60;80.15;96363.22;6149905;28;19927;-61
2022/01/31 02:10:25;;;;;;;;;;;;;;;-6.61;79.24;96366.66;6144007;28;19926;-61
2022/01/31 02:13:26;;;;;;;;;;;;;;;-6.59;79.20;96359.84;6139214;28;19927;-67
2022/01/31 02:16:30;;;;;;;;;;;;;;;-6.62;79.44;96352.19;6140217;28;19934;-60
2022/01/31 02:19:33;;;;;;;;;;;;;;;-6.36;78.95;96354.56;6151014;28;19977;-60
2022/01/31 02:22:35;;;;;;;;;;;;;;;-6.24;78.14;96356.16;6144071;28;19926;-60
2022/01/31 02:25:55;;;;;;;;;;;;;;;-6.08;77.29;96359.47;6145026;28;19926;-58
2022/01/31 02:28:59;;;;;;;;;;;;;;;-6.06;77.82;96353.44;6145217;28;19926;-58
2022/01/31 02:32:02;;;;;;;;;;;;;;;-5.98;78.01;96367.06;6143923;28;19926;-58
2022/01/31 02:35:05;;;;;;;;;;;;;;;-6.02;77.58;96364.53;6152031;28;20414;-60
2022/01/31 02:38:06;;;;;;;;;;;;;;;-6.10;78.62;96364.59;6143654;28;19926;-61
2022/01/31 02:41:07;;;;;;;;;;;;;;;-6.14;78.89;96360.38;6143704;28;20371;-61
2022/01/31 02:44:14;;;;;;;;;;;;;;;-5.83;78.14;96365.19;6140225;28;19926;-60
2022/01/31 02:47:23;;;;;;;;;;;;;;;-5.68;78.17;96360.78;6150826;28;19926;-59
2022/01/31 02:50:25;;;;;;;;;;;;;;;-5.90;77.88;96370.38;6148048;28;19937;-61
2022/01/31 02:53:29;;;;;;;;;;;;;;;-5.99;77.99;96369.66;6132352;28;20412;-60
2022/01/31 02:56:30;;;;;;;;;;;;;;;-5.82;77.79;96356.66;6146779;28;19942;-60
2022/01/31 02:59:33;;;;;;;;;;;;;;;-5.97;78.63;96358.53;6139739;28;20372;-60
2022/01/31 03:02:34;;;;;;;;;;;;;;;-6.12;78.75;96363.75;6148965;28;20022;-61
2022/01/31 03:05:37;;;;;;;;;;;;;;;-6.23;79.07;96365.53;6144610;28;20308;-61
2022/01/31 03:08:39;;;;;;;;;;;;;;;-6.15;79.14;96374.03;6136447;28;19962;-59
2022/01/31 03:11:40;;;;;;;;;;;;;;;-5.97;78.94;96367.91;6147163;28;19930;-61
2022/01/31 03:14:42;;;;;;;;;;;;;;;-5.91;78.56;96373.81;6142108;28;20319;-58
2022/01/31 03:17:47;;;;;;;;;;;;;;;-5.87;78.30;96369.50;6140551;28;20389;-59
2022/01/31 03:20:51;;;;;;;;;;;;;;;-5.75;78.50;96374.50;6149275;28;19926;-60
2022/01/31 03:23:52;;;;;;;;;;;;;;;-5.75;78.07;96378.78;6146943;28;20077;-60
2022/01/31 03:26:54;;;;;;;;;;;;;;;-5.80;78.33;96375.41;6149751;28;19927;-62
2022/01/31 03:29:57;;;;;;;;;;;;;;;-5.74;78.18;96380.50;6146785;28;19949;-60
2022/01/31 03:32:58;;;;;;;;;;;;;;;-5.88;78.36;96378.91;6141415;28;19941;-60
2022/01/31 03:35:59;;;;;;;;;;;;;;;-5.69;77.52;96384.72;6135151;28;19922;-60
2022/01/31 03:39:02;;;;;;;;;;;;;;;-5.69;77.78;96379.59;6135418;28;20311;-60
2022/01/31 03:42:04;;;;;;;;;;;;;;;-5.68;77.46;96385.56;6142995;28;19927;-60
2022/01/31 03:45:08;;;;;;;;;;;;;;;-5.68;78.13;96381.28;6147276;28;19927;-59
2022/01/31 03:48:12;;;;;;;;;;;;;;;-5.67;77.48;96388.09;6135152;28;20025;-61
2022/01/31 03:51:16;;;;;;;;;;;;;;;-5.72;77.79;96397.56;6144474;28;19923;-60
2022/01/31 03:54:19;;;;;;;;;;;;;;;-5.76;78.17;96395.03;6161593;28;20073;-59
2022/01/31 03:57:22;;;;;;;;;;;;;;;-5.79;78.49;96402.75;6147125;28;19926;-59
2022/01/31 04:00:24;;;;;;;;;;;;;;;-5.65;78.06;96406.03;6150833;28;20370;-60
2022/01/31 04:03:26;;;;;;;;;;;;;;;-5.57;78.58;96401.69;6146741;28;20013;-60
2022/01/31 04:06:27;;;;;;;;;;;;;;;-5.55;78.15;96405.06;6150226;29;20420;-60
2022/01/31 04:09:28;;;;;;;;;;;;;;;-5.42;77.58;96411.78;6150441;28;19927;-61
2022/01/31 04:12:29;;;;;;;;;;;;;;;-5.44;78.09;96416.06;6132445;28;20353;-61
2022/01/31 04:15:30;;;;;;;;;;;;;;;-5.21;77.98;96415.00;6142362;28;20030;-61
2022/01/31 04:18:31;;;;;;;;;;;;;;;-5.05;77.49;96419.09;6150435;29;19934;-61
2022/01/31 04:21:32;;;;;;;;;;;;;;;-5.05;77.69;96413.97;6149765;28;19926;-61
2022/01/31 04:24:40;;;;;;;;;;;;;;;-4.98;77.16;96409.66;6149348;28;20307;-62
2022/01/31 04:27:46;;;;;;;;;;;;;;;-5.03;77.29;96406.28;6142654;28;20253;-60
2022/01/31 04:34:15;;;;;;;;;;;;;;;-4.81;77.71;96411.97;6130444;28;19926;-60
2022/01/31 04:37:18;;;;;;;;;;;;;;;-4.79;77.67;96395.69;6135708;28;19927;-60
2022/01/31 04:40:19;;;;;;;;;;;;;;;-4.71;77.80;96403.31;6138511;28;19989;-58
2022/01/31 04:43:20;;;;;;;;;;;;;;;-4.40;78.08;96413.19;6136950;28;20320;-58
2022/01/31 04:46:24;;;;;;;;;;;;;;;-4.24;77.41;96411.28;6146192;28;20013;-65
2022/01/31 04:49:27;;;;;;;;;;;;;;;-4.16;77.06;96412.84;6141649;28;19922;-64
2022/01/31 04:52:30;;;;;;;;;;;;;;;-4.17;77.09;96426.56;6146685;28;19926;-64
2022/01/31 04:55:32;;;;;;;;;;;;;;;-4.04;76.63;96423.81;6139132;28;19922;-63
2022/01/31 04:58:33;;;;;;;;;;;;;;;-3.91;75.75;96433.03;6138790;28;19928;-63
2022/01/31 05:01:34;;;;;;;;;;;;;;;-3.83;75.92;96436.34;6144440;28;20265;-66
2022/01/31 05:04:40;;;;;;;;;;;;;;;-3.73;75.39;96431.91;6133455;28;19926;-64
2022/01/31 05:07:41;;;;;;;;;;;;;;;-3.77;74.88;96436.22;6141065;28;20024;-63
2022/01/31 05:10:48;;;;;;;;;;;;;;;-3.75;74.83;96434.50;6145349;28;19927;-64
2022/01/31 05:13:54;;;;;;;;;;;;;;;-3.67;74.26;96442.94;6141219;28;19926;-64
2022/01/31 05:16:55;;;;;;;;;;;;;;;-3.71;74.30;96436.16;6145690;28;19926;-63
2022/01/31 05:19:58;;;;;;;;;;;;;;;-3.57;74.26;96437.63;6135520;28;19927;-63
2022/01/31 05:22:59;;;;;;;;;;;;;;;-3.37;73.04;96430.44;6141018;28;19933;-63
2022/01/31 05:26:00;;;;;;;;;;;;;;;-3.50;73.11;96432.38;6137179;28;19926;-63
2022/01/31 05:29:01;;;;;;;;;;;;;;;-3.33;73.36;96426.09;6138846;28;19932;-64
2022/01/31 05:32:02;;;;;;;;;;;;;;;-3.23;72.53;96436.22;6132495;28;19927;-64
2022/01/31 05:35:05;;;;;;;;;;;;;;;-2.99;72.01;96444.38;6156127;28;20319;-65
2022/01/31 05:38:07;;;;;;;;;;;;;;;-2.72;71.84;96445.53;6146365;28;19926;-64
2022/01/31 05:41:18;;;;;;;;;;;;;;;-2.50;70.92;96451.97;6168030;28;19930;-65
2022/01/31 05:44:21;;;;;;;;;;;;;;;-2.38;70.66;96439.72;6167413;28;19926;-65
2022/01/31 05:47:22;;;;;;;;;;;;;;;-2.07;70.60;96451.09;6170462;28;19930;-64
2022/01/31 05:50:26;;;;;;;;;;;;;;;-1.53;68.18;96454.16;6171495;28;19933;-63
2022/01/31 05:53:28;;;;;;;;;;;;;;;-1.33;67.33;96451.09;6171997;28;20003;-63
2022/01/31 05:56:32;;;;;;;;;;;;;;;-1.15;65.63;96451.47;6173146;28;20327;-62
2022/01/31 05:59:33;;;;;;;;;;;;;;;-0.72;64.42;96452.94;6167710;28;20016;-61
2022/01/31 06:02:39;;;;;;;;;;;;;;;-0.74;63.41;96461.59;6135315;28;19927;-63
2022/01/31 06:05:40;;;;;;;;;;;;;;;-0.91;63.14;96460.34;6125747;29;20029;-63
2022/01/31 06:08:44;;;;;;;;;;;;;;;-1.04;64.50;96461.53;6133163;29;20345;-61
2022/01/31 06:11:48;;;;;;;;;;;;;;;-0.98;61.06;96463.97;6142301;28;19922;-61
2022/01/31 06:14:49;;;;;;;;;;;;;;;-1.31;63.02;96459.66;6170473;28;19930;-62
2022/01/31 06:17:52;;;;;;;;;;;;;;;-0.64;63.46;96470.81;6170701;28;20266;-62
2022/01/31 06:20:53;;;;;;;;;;;;;;;1.46;59.49;96481.56;6171849;28;19922;-63
2022/01/31 06:23:55;;;;;;;;;;;;;;;1.90;55.85;96473.94;6172774;28;19930;-64
2022/01/31 06:26:58;;;;;;;;;;;;;;;2.44;54.66;96483.13;6170307;28;19932;-64
2022/01/31 06:30:04;;;;;;;;;;;;;;;3.51;50.40;96483.06;6170059;28;19926;-63
2022/01/31 06:33:07;;;;;;;;;;;;;;;4.12;48.82;96485.56;6171282;28;19926;-63
2022/01/31 06:36:08;;;;;;;;;;;;;;;4.30;46.38;96481.28;6174297;28;19933;-63
2022/01/31 06:39:09;;;;;;;;;;;;;;;3.50;47.90;96484.84;6176287;28;19933;-63
2022/01/31 06:42:10;;;;;;;;;;;;;;;3.13;49.10;96489.00;6176623;28;19933;-63
2022/01/31 06:45:14;;;;;;;;;;;;;;;3.33;47.94;96490.75;6176650;28;19926;-64
2022/01/31 06:48:19;;;;;;;;;;;;;;;3.24;48.30;96495.50;6176674;28;20335;-63
2022/01/31 06:51:20;;;;;;;;;;;;;;;2.66;47.80;96493.50;6177007;28;19926;-63
2022/01/31 06:54:21;;;;;;;;;;;;;;;2.19;49.52;96497.03;6176293;28;19930;-63
2022/01/31 06:57:30;;;;;;;;;;;;;;;2.65;48.53;96492.66;6176318;28;19973;-64
2022/01/31 07:00:34;;;;;;;;;;;;;;;4.52;45.62;96480.28;6176524;28;20016;-63
2022/01/31 07:03:36;;;;;;;;;;;;;;;5.90;42.70;96486.47;6176222;28;19961;-62
2022/01/31 07:06:39;;;;;;;;;;;;;;;5.70;41.51;96496.19;6175978;28;19926;-64
2022/01/31 07:09:42;;;;;;;;;;;;;;;4.53;43.06;96495.00;6176162;28;19926;-63
2022/01/31 07:12:49;;;;;;;;;;;;;;;3.36;45.01;96494.97;6175802;28;20033;-65
2022/01/31 07:15:52;;;;;;;;;;;;;;;2.85;46.71;96493.63;6174813;28;19926;-63
2022/01/31 07:18:59;;;;;;;;;;;;;;;3.41;46.18;96492.19;6175900;28;19933;-63
2022/01/31 07:22:03;;;;;;;;;;;;;;;4.71;43.32;96486.31;6176180;28;20149;-64
2022/01/31 07:25:21;;;;;;;;;;;;;;;4.74;42.15;96483.56;6174625;28;19930;-64
2022/01/31 07:28:22;;;;;;;;;;;;;;;3.52;44.55;96493.44;6175583;28;19926;-64
2022/01/31 07:31:26;;;;;;;;;;;;;;;2.81;46.46;96494.66;6175479;28;19933;-64
2022/01/31 07:34:26;;;;;;;;;;;;;;;2.24;47.62;96495.13;6175773;28;19933;-64
2022/01/31 07:37:30;;;;;;;;;;;;;;;1.90;48.80;96492.09;6175256;28;19925;-64
2022/01/31 07:40:37;;;;;;;;;;;;;;;1.56;50.06;96488.13;6175779;28;19926;-64
2022/01/31 07:43:43;;;;;;;;;;;;;;;1.32;51.09;96490.66;6175092;28;19933;-64
2022/01/31 07:46:44;;;;;;;;;;;;;;;1.04;50.90;96488.16;6174743;28;19930;-64
2022/01/31 07:49:46;;;;;;;;;;;;;;;0.77;51.16;96497.69;6174087;28;19932;-65
2022/01/31 07:52:49;;;;;;;;;;;;;;;0.54;51.92;96489.78;6175448;28;19926;-63
2022/01/31 07:55:50;;;;;;;;;;;;;;;0.49;52.10;96492.53;6175418;28;19934;-63
2022/01/31 07:58:54;;;;;;;;;;;;;;;0.40;52.33;96495.41;6174620;28;20391;-63
2022/01/31 08:01:55;;;;;;;;;;;;;;;0.37;53.20;96493.75;6174565;28;19932;-63
2022/01/31 08:04:58;;;;;;;;;;;;;;;0.42;52.75;96486.69;6174912;28;19969;-63
2022/01/31 08:07:59;;;;;;;;;;;;;;;0.62;52.96;96487.81;6174725;28;19926;-64
2022/01/31 08:11:04;;;;;;;;;;;;;;;1.17;51.21;96486.00;6174768;28;20396;-64
2022/01/31 08:14:07;;;;;;;;;;;;;;;1.64;50.99;96493.88;6174568;28;19961;-64
2022/01/31 08:17:08;;;;;;;;;;;;;;;1.80;50.44;96495.00;6173865;28;19926;-63
2022/01/31 08:20:10;;;;;;;;;;;;;;;1.65;50.20;96486.97;6173007;28;20414;-63
2022/01/31 08:23:11;;;;;;;;;;;;;;;1.37;51.32;96498.28;6173860;28;19926;-63
2022/01/31 08:26:15;;;;;;;;;;;;;;;1.38;51.83;96492.19;6173799;28;19930;-62
2022/01/31 08:29:22;;;;;;;;;;;;;;;1.56;51.35;96499.34;6174399;28;19926;-63
2022/01/31 08:32:34;;;;;;;;;;;;;;;1.43;51.79;96512.78;6173992;28;19933;-64
2022/01/31 08:35:48;;;;;;;;;;;;;;;1.34;52.55;96508.75;6174170;28;19926;-65
2022/01/31 08:38:50;;;;;;;;;;;;;;;1.26;53.08;96516.78;6174175;28;19932;-66
2022/01/31 08:41:51;;;;;;;;;;;;;;;1.06;53.29;96520.03;6174471;28;20300;-64
2022/01/31 08:44:55;;;;;;;;;;;;;;;0.87;53.83;96531.91;6172917;28;19933;-64
2022/01/31 08:47:58;;;;;;;;;;;;;;;0.92;53.94;96537.78;6173256;28;20396;-64
2022/01/31 08:51:00;;;;;;;;;;;;;;;0.64;54.36;96537.81;6173542;28;19926;-64
2022/01/31 08:54:02;;;;;;;;;;;;;;;0.22;55.52;96543.38;6173907;28;19930;-65
2022/01/31 08:57:05;;;;;;;;;;;;;;;0.33;54.87;96541.31;6173707;28;20323;-64
2022/01/31 09:00:09;;;;;;;;;;;;;;;-0.10;56.44;96539.97;6173733;28;19926;-64
2022/01/31 09:06:14;;;;;;;;;;;;;;;-0.61;57.85;96537.91;6173826;28;19925;-64
2022/01/31 09:09:18;;;;;;;;;;;;;;;-0.64;58.34;96538.00;6173342;28;19930;-64
2022/01/31 09:12:24;;;;;;;;;;;;;;;-0.62;58.41;96536.22;6173434;28;20040;-63
2022/01/31 09:15:28;;;;;;;;;;;;;;;-0.57;58.21;96539.50;6173736;28;19930;-63
2022/01/31 09:18:29;;;;;;;;;;;;;;;-0.38;57.85;96544.22;6173170;28;19926;-64
2022/01/31 09:21:30;;;;;;;;;;;;;;;-0.32;58.23;96544.03;6173308;28;19930;-64
2022/01/31 09:24:37;;;;;;;;;;;;;;;-0.41;58.54;96544.28;6173397;28;19949;-64
2022/01/31 09:27:38;;;;;;;;;;;;;;;-0.12;57.87;96541.75;6173137;28;19933;-63
2022/01/31 09:30:39;;;;;;;;;;;;;;;-0.31;59.00;96550.91;6173188;28;20391;-64
2022/01/31 09:33:43;;;;;;;;;;;;;;;-0.11;58.79;96542.63;6173396;28;20418;-64
2022/01/31 09:36:44;;;;;;;;;;;;;;;-0.04;58.00;96542.38;6173669;28;19926;-64
2022/01/31 09:39:47;;;;;;;;;;;;;;;0.07;57.86;96538.66;6173223;28;19932;-63
2022/01/31 09:43:57;;;;;;;;;;;;;;;-0.01;58.01;96544.03;6173204;28;19949;-64
2022/01/31 09:49:20;;;;;;;;;;;;;;;-0.32;58.20;96551.78;6172162;28;19926;-64
2022/01/31 09:52:21;;;;;;;;;;;;;;;-0.70;59.58;96549.34;6172474;28;19972;-65
2022/01/31 09:55:25;;;;;;;;;;;;;;;-1.06;60.96;96548.50;6172343;28;20376;-64
2022/01/31 09:58:29;;;;;;;;;;;;;;;-1.07;61.19;96553.72;6171388;28;19933;-66
2022/01/31 10:01:31;;;;;;;;;;;;;;;-1.32;61.72;96561.19;6172112;28;20343;-64
2022/01/31 10:04:36;;;;;;;;;;;;;;;-1.26;62.43;96556.72;6172730;28;19926;-63
2022/01/31 10:07:46;;;;;;;;;;;;;;;-1.28;62.50;96555.91;6172921;28;19926;-65
2022/01/31 10:10:49;;;;;;;;;;;;;;;-1.39;62.57;96568.22;6175116;28;19926;-63
2022/01/31 10:17:09;;;;;;;;;;;;;;;-1.32;63.13;96564.63;6177576;28;19926;-64
2022/01/31 10:20:20;;;;;;;;;;;;;;;-1.30;63.42;96562.00;6176952;28;19933;-64
2022/01/31 10:23:21;;;;;;;;;;;;;;;-1.18;63.16;96564.31;6175865;28;19926;-64
2022/01/31 10:26:27;;;;;;;;;;;;;;;-1.33;63.11;96572.38;6177155;28;19926;-64
2022/01/31 10:29:28;;;;;;;;;;;;;;;-1.40;63.81;96569.94;6176680;28;19926;-64
2022/01/31 10:32:34;;;;;;;;;;;;;;;-1.29;63.97;96571.44;6177038;28;19949;-64
2022/01/31 10:35:41;;;;;;;;;;;;;;;-1.19;63.69;96570.34;6177120;28;20569;-64
2022/01/31 10:38:47;;;;;;;;;;;;;;;-1.14;64.35;96578.81;6177014;28;19926;-63
2022/01/31 10:52:06;;;;;;;;;;;;;;;-0.39;62.34;96581.31;6176483;28;20333;-64
2022/01/31 10:55:15;;;;;;;;;;;;;;;-0.40;62.60;96575.25;6176112;28;19926;-63
2022/01/31 10:58:19;;;;;;;;;;;;;;;-0.40;62.54;96574.41;6175803;28;19926;-64
2022/01/31 11:01:20;;;;;;;;;;;;;;;-0.44;62.11;96585.75;6176016;28;19926;-63
2022/01/31 11:04:22;;;;;;;;;;;;;;;-0.51;62.01;96591.06;6176323;28;20339;-64
2022/01/31 11:07:26;;;;;;;;;;;;;;;-0.38;61.89;96590.75;6176251;28;19926;-65
2022/01/31 11:10:28;;;;;;;;;;;;;;;-0.53;61.58;96587.66;6175534;28;20034;-65
2022/01/31 11:13:31;;;;;;;;;;;;;;;-0.46;62.73;96596.09;6175952;28;20355;-63
2022/01/31 11:16:35;;;;;;;;;;;;;;;-0.29;62.42;96603.41;6176325;28;19926;-64
2022/01/31 11:19:39;;;;;;;;;;;;;;;-0.31;62.14;96603.47;6175925;28;20027;-64
2022/01/31 11:22:42;;;;;;;;;;;;;;;-0.23;62.94;96605.84;6175133;28;19933;-64
2022/01/31 11:25:47;;;;;;;;;;;;;;;-0.18;62.09;96606.56;6175872;28;19935;-64
2022/01/31 11:28:54;;;;;;;;;;;;;;;-0.08;61.83;96609.78;6175886;28;20416;-64
2022/01/31 11:31:58;;;;;;;;;;;;;;;-0.05;61.79;96610.53;6175745;28;19926;-63
2022/01/31 11:34:59;;;;;;;;;;;;;;;0.03;61.13;96622.38;6175265;28;20376;-65
2022/01/31 11:38:01;;;;;;;;;;;;;;;0.11;61.11;96621.28;6175243;28;19930;-63
2022/01/31 11:41:03;;;;;;;;;;;;;;;0.02;60.64;96625.88;6174919;28;19922;-63
2022/01/31 11:44:13;;;;;;;;;;;;;;;-0.24;61.52;96619.66;6175477;28;19926;-64
2022/01/31 11:47:19;;;;;;;;;;;;;;;-0.31;60.81;96624.16;6174941;28;19926;-64
2022/01/31 11:50:23;;;;;;;;;;;;;;;-0.56;60.96;96623.09;6174914;28;19949;-64
2022/01/31 11:53:34;;;;;;;;;;;;;;;-0.89;61.08;96630.75;6174793;28;20331;-64
2022/01/31 11:56:44;;;;;;;;;;;;;;;-1.30;62.61;96629.09;6175217;28;19926;-64
2022/01/31 11:59:48;;;;;;;;;;;;;;;-1.47;62.38;96632.03;6174447;28;20284;-64
2022/01/31 12:02:53;;;;;;;;;;;;;;;-1.42;63.24;96636.22;6173886;28;20383;-65
2022/01/31 12:05:54;;;;;;;;;;;;;;;-1.41;62.62;96630.22;6174755;28;19933;-64
2022/01/31 12:09:07;;;;;;;;;;;;;;;-1.71;62.91;96636.00;6174559;28;19926;-64
2022/01/31 12:12:36;;;;;;;;;;;;;;;-1.95;64.04;96630.47;6174328;28;20024;-64
2022/01/31 12:18:56;;;;;;;;;;;;;;;-1.93;63.90;96633.00;6174204;28;19933;-64
2022/01/31 12:22:00;;;;;;;;;;;;;;;-2.21;64.82;96627.50;6173954;28;20415;-65
2022/01/31 12:25:22;;;;;;;;;;;;;;;-2.31;65.29;96638.00;6174478;28;19926;-65
2022/01/31 12:28:36;;;;;;;;;;;;;;;-2.43;65.73;96638.22;6173946;28;19926;-65
2022/01/31 12:31:48;;;;;;;;;;;;;;;-2.44;65.80;96641.66;6173502;28;20476;-65
2022/01/31 12:34:52;;;;;;;;;;;;;;;-2.50;66.13;96642.59;6173705;28;19965;-64
2022/01/31 12:37:54;;;;;;;;;;;;;;;-2.54;66.10;96645.28;6173472;28;19993;-66
2022/01/31 12:41:04;;;;;;;;;;;;;;;-2.50;66.20;96646.91;6174034;28;19926;-65
2022/01/31 12:44:23;;;;;;;;;;;;;;;-2.65;66.46;96642.03;6173334;28;19933;-65
2022/01/31 12:47:25;;;;;;;;;;;;;;;-2.74;66.12;96658.50;6173331;28;19945;-64
2022/01/31 12:50:30;;;;;;;;;;;;;;;-3.06;66.52;96652.09;6173868;28;19926;-64
2022/01/31 12:56:35;;;;;;;;;;;;;;;-3.50;67.36;96655.31;6173035;28;20068;-62
2022/01/31 12:59:37;;;;;;;;;;;;;;;-3.49;67.47;96657.00;6173425;28;20079;-64
2022/01/31 13:02:48;;;;;;;;;;;;;;;-3.56;67.50;96656.22;6173417;28;20307;-65
2022/01/31 13:05:54;;;;;;;;;;;;;;;-3.63;67.64;96660.56;6172894;28;19936;-64
2022/01/31 13:09:30;;;;;;;;;;;;;;;-3.98;68.59;96666.16;6173632;28;19925;-65
2022/01/31 13:12:36;;;;;;;;;;;;;;;-4.33;69.16;96669.06;6151979;28;20387;-64
2022/01/31 13:15:39;;;;;;;;;;;;;;;-4.25;69.30;96680.13;6173605;28;19926;-65
2022/01/31 13:18:42;;;;;;;;;;;;;;;-4.38;69.58;96681.13;6173523;28;20412;-64
2022/01/31 13:21:48;;;;;;;;;;;;;;;-4.36;69.11;96684.50;6173601;28;19926;-65
2022/01/31 13:24:56;;;;;;;;;;;;;;;-4.52;69.08;96683.81;6173425;28;20414;-64
2022/01/31 13:27:58;;;;;;;;;;;;;;;-4.65;69.36;96688.19;6173388;28;20020;-64
2022/01/31 13:31:05;;;;;;;;;;;;;;;-5.00;69.58;96691.88;6173365;28;19926;-65
2022/01/31 13:34:10;;;;;;;;;;;;;;;-5.29;70.14;96697.19;6173510;28;20419;-65
2022/01/31 13:37:29;;;;;;;;;;;;;;;-5.21;70.67;96699.69;6173122;28;19926;-64
2022/01/31 13:40:36;;;;;;;;;;;;;;;-5.15;70.19;96699.69;6172860;28;19926;-63
2022/01/31 13:43:39;;;;;;;;;;;;;;;-5.35;71.34;96709.19;6173479;28;19969;-65
2022/01/31 13:46:48;;;;;;;;;;;;;;;-5.47;71.45;96708.38;6178365;28;20306;-64
2022/01/31 13:50:00;;;;;;;;;;;;;;;-5.60;71.49;96719.56;6178296;28;19934;-65
2022/01/31 13:53:01;;;;;;;;;;;;;;;-5.68;71.10;96708.50;6177545;28;19926;-64
2022/01/31 13:56:04;;;;;;;;;;;;;;;-5.76;72.18;96707.66;6177595;28;19926;-64
2022/01/31 13:59:11;;;;;;;;;;;;;;;-5.67;72.12;96712.75;6177239;28;19933;-64
2022/01/31 14:02:19;;;;;;;;;;;;;;;-5.62;72.32;96718.72;6177028;28;19933;-63
2022/01/31 14:05:20;;;;;;;;;;;;;;;-5.56;72.26;96721.25;6177213;28;19926;-64
2022/01/31 14:08:25;;;;;;;;;;;;;;;-5.65;72.47;96723.84;6176965;28;20422;-64
2022/01/31 14:11:28;;;;;;;;;;;;;;;-5.74;73.03;96729.03;6177615;28;19922;-64
2022/01/31 14:14:30;;;;;;;;;;;;;;;-5.67;72.77;96735.81;6177088;28;19926;-66
2022/01/31 14:17:34;;;;;;;;;;;;;;;-5.73;73.57;96731.56;6177413;28;19933;-65
2022/01/31 14:20:37;;;;;;;;;;;;;;;-5.87;73.93;96723.06;6177028;28;19953;-64
2022/01/31 14:23:43;;;;;;;;;;;;;;;-6.06;74.19;96732.53;6176079;28;19926;-65
2022/01/31 14:26:51;;;;;;;;;;;;;;;-6.27;74.66;96735.16;6177237;28;19937;-64
2022/01/31 14:29:59;;;;;;;;;;;;;;;-6.35;74.88;96741.13;6176735;28;19926;-65
2022/01/31 14:33:06;;;;;;;;;;;;;;;-6.11;74.84;96739.41;6176711;28;19985;-65
2022/01/31 14:36:11;;;;;;;;;;;;;;;-6.13;74.39;96736.81;6175470;28;20304;-65
2022/01/31 14:49:04;;;;;;;;;;;;;;;-6.62;74.59;96751.38;6176429;28;19933;-65
2022/01/31 14:52:10;;;;;;;;;;;;;;;-6.71;74.66;96756.47;6176734;28;20388;-66
2022/01/31 14:55:16;;;;;;;;;;;;;;;-6.78;74.79;96756.47;6159111;28;20396;-65
2022/01/31 14:58:19;;;;;;;;;;;;;;;-6.94;75.67;96764.97;6175743;28;19933;-65
2022/01/31 15:01:22;;;;;;;;;;;;;;;-6.95;75.49;96770.94;6176374;28;19926;-66
2022/01/31 15:04:25;;;;;;;;;;;;;;;-6.94;75.11;96775.19;6176160;28;19929;-65
2022/01/31 15:07:28;;;;;;;;;;;;;;;-6.92;75.40;96778.63;6176249;28;19926;-65
2022/01/31 15:10:34;;;;;;;;;;;;;;;-6.74;74.74;96771.81;6176253;28;20398;-64
2022/01/31 15:13:38;;;;;;;;;;;;;;;-6.91;74.97;96772.63;6176316;28;19926;-65
2022/01/31 15:16:39;;;;;;;;;;;;;;;-6.90;74.56;96771.81;6175175;28;19926;-63
2022/01/31 15:19:43;;;;;;;;;;;;;;;-6.94;75.58;96764.97;6174533;28;19932;-64
2022/01/31 15:22:45;;;;;;;;;;;;;;;-6.98;75.44;96768.38;6175980;28;20057;-64
2022/01/31 15:25:46;;;;;;;;;;;;;;;-6.97;76.05;96770.06;6175681;28;19933;-66
2022/01/31 15:28:48;;;;;;;;;;;;;;;-7.03;75.28;96776.03;6175429;28;20376;-64
2022/01/31 15:31:49;;;;;;;;;;;;;;;-7.24;76.17;96774.28;6175383;28;19926;-64
2022/01/31 15:34:50;;;;;;;;;;;;;;;-7.26;76.49;96773.41;6175630;28;19922;-64
2022/01/31 15:37:54;;;;;;;;;;;;;;;-7.12;77.10;96780.28;6175187;28;19945;-64
2022/01/31 15:40:56;;;;;;;;;;;;;;;-7.29;76.82;96783.63;6175165;28;19922;-65
2022/01/31 15:44:02;;;;;;;;;;;;;;;-7.19;76.53;96783.66;6174651;28;20307;-64
2022/01/31 15:47:06;;;;;;;;;;;;;;;-7.21;76.37;96768.31;6175368;28;20395;-66
2022/01/31 15:50:12;;;;;;;;;;;;;;;-7.12;76.33;96781.13;6175258;28;20052;-64
2022/01/31 15:53:16;;;;;;;;;;;;;;;-7.06;76.34;96780.28;6174500;28;19926;-65
2022/01/31 15:56:19;;;;;;;;;;;;;;;-7.07;76.45;96784.56;6174682;28;19926;-64
2022/01/31 15:59:20;;;;;;;;;;;;;;;-7.07;76.10;96786.28;6174835;28;20467;-65
2022/01/31 16:02:21;;;;;;;;;;;;;;;-7.05;76.82;96787.97;6174964;28;19953;-64
2022/01/31 16:05:22;;;;;;;;;;;;;;;-7.19;76.13;96799.00;6174844;28;19926;-65
2022/01/31 16:08:26;;;;;;;;;;;;;;;-7.07;76.79;96799.06;6174469;28;20319;-65
2022/01/31 16:11:29;;;;;;;;;;;;;;;-7.16;75.90;96810.13;6175006;28;19926;-64
2022/01/31 16:14:30;;;;;;;;;;;;;;;-6.92;75.92;96806.75;6173545;28;19933;-64
2022/01/31 16:17:31;;;;;;;;;;;;;;;-7.00;75.72;96811.84;6174508;28;19930;-65
2022/01/31 16:20:35;;;;;;;;;;;;;;;-7.28;75.69;96817.72;6174767;28;19926;-65
2022/01/31 16:23:39;;;;;;;;;;;;;;;-7.42;75.84;96827.88;6174264;28;19985;-65
2022/01/31 16:26:43;;;;;;;;;;;;;;;-7.54;76.34;96822.72;6174445;28;19926;-65
2022/01/31 16:29:51;;;;;;;;;;;;;;;-7.64;76.81;96837.16;6174236;28;20032;-65
2022/01/31 16:32:54;;;;;;;;;;;;;;;-7.81;76.91;96831.94;6174461;28;20020;-64
2022/01/31 16:35:57;;;;;;;;;;;;;;;-7.98;76.93;96830.94;6174508;28;19922;-65
2022/01/31 16:39:00;;;;;;;;;;;;;;;-8.12;77.35;96836.00;6174234;28;20036;-64